Current | Forecast
Updated: 12:00 PM JST on April 29, 2017
Observed at Matsuyama Airport, Japan
Temperature 20°C
Humidity 52%
Dew Point 10°C
Wind SSW at 17 km/h
Pressure 1008 hPa (Steady)
Conditions Partly Cloudy
Visibility 10.0 kilometers
UV 12 out of 16
Clouds (FEW) : 914 m
Yesterday's Maximum 20°C
Yesterday's Minimum 10°C approx.
Yesterday's Heating Degree Days 6 approx.
Sunrise5:23 AM JST
Sunset6:49 PM JST
Moon Rise7:43 AM JST
Moon Set9:54 PM JST
Moon PhaseMoon Phase
Waxing Crescent
Raw METARMETAR RJOM 290300Z 21009KT 9999 FEW030 20/10 Q1008


Monday
. High: 71° F.
Tuesday
. High: 75° F.
Wednesday
. High: 71° F.
Thursday
. High: 75° F.
Friday
. High: 71° F.
Saturday
. High: 73° F.
Sunday
. High: 75° F.
Monday
. High: 78° F.

Units: English | Metric

Find the Weather for any City, State or Zipcode, or Country:

U.S. State List | Severe Weather | Tropical Storms | Ski Conditions
United States | Canada | Central America | South America | Asia | Europe | Australia | Africa | Islands

Weather Underground

© Copyright 2017
The Weather Company, LLC